Time;durP1;ratioP1;P1;durP2;ratioP2;P2;SDS_P1;SDS_P2;PMS_P1;PMS_P2;Temp;Humidity;BMP_temperature;BMP_pressure;BME280_temperature;BME280_humidity;BME280_pressure;Samples;Min_cycle;Max_cycle;Signal;HPM_P1;HPM_P2
2023/05/08 00:01:11;;;;;;;14.93;13.32;;;11.90;99.90;;;;;;5015831;28;20057;-73
2023/05/08 00:03:36;;;;;;;15.50;11.60;;;11.90;99.90;;;;;;4997906;28;20038;-72
2023/05/08 00:06:05;;;;;;;13.15;11.77;;;11.90;99.90;;;;;;5016083;28;20057;-72
2023/05/08 00:08:31;;;;;;;13.23;11.82;;;11.90;99.90;;;;;;5015338;28;20037;-72
2023/05/08 00:10:57;;;;;;;12.82;11.52;;;11.90;99.90;;;;;;5015810;28;20045;-73
2023/05/08 00:13:22;;;;;;;13.60;12.18;;;11.90;99.90;;;;;;5015276;28;20046;-72
2023/05/08 00:15:48;;;;;;;13.13;11.73;;;12.00;99.90;;;;;;5015054;28;20108;-73
2023/05/08 00:18:14;;;;;;;13.60;12.00;;;12.00;99.90;;;;;;5015771;28;20048;-73
2023/05/08 00:20:40;;;;;;;13.52;12.10;;;12.00;99.90;;;;;;4997981;28;20379;-72
2023/05/08 00:23:06;;;;;;;14.48;12.05;;;12.00;99.90;;;;;;4997826;28;20062;-73
2023/05/08 00:25:32;;;;;;;16.17;11.98;;;12.00;99.90;;;;;;5015128;28;20050;-72
2023/05/08 00:27:58;;;;;;;11.95;10.75;;;12.00;99.90;;;;;;5014741;28;20045;-72
2023/05/08 00:30:23;;;;;;;17.92;13.85;;;12.00;99.90;;;;;;5015007;28;20050;-73
2023/05/08 00:32:49;;;;;;;14.13;12.65;;;12.00;99.90;;;;;;5015084;28;20054;-73
2023/05/08 00:35:15;;;;;;;14.43;12.90;;;12.00;99.90;;;;;;5014891;28;20045;-73
2023/05/08 00:37:42;;;;;;;14.23;12.65;;;12.00;99.90;;;;;;4993911;28;20125;-72
2023/05/08 00:40:09;;;;;;;14.98;13.07;;;12.00;99.90;;;;;;4994919;28;20446;-72
2023/05/08 00:42:35;;;;;;;12.95;11.65;;;12.00;99.90;;;;;;4994603;28;20130;-72
2023/05/08 00:45:02;;;;;;;14.75;12.60;;;11.90;99.90;;;;;;4994737;28;20085;-72
2023/05/08 00:47:28;;;;;;;14.07;12.38;;;11.90;99.90;;;;;;4994998;28;20101;-72
2023/05/08 00:49:54;;;;;;;13.35;11.65;;;11.90;99.90;;;;;;4995715;28;20066;-73
2023/05/08 00:52:21;;;;;;;15.70;13.45;;;11.90;99.90;;;;;;4995399;28;20050;-72
2023/05/08 00:54:47;;;;;;;14.63;11.70;;;11.90;99.90;;;;;;4994964;28;20122;-72
2023/05/08 00:57:15;;;;;;;16.02;13.00;;;11.80;99.90;;;;;;4994564;28;20046;-73
2023/05/08 00:59:41;;;;;;;15.10;13.40;;;11.80;99.90;;;;;;4995241;28;20107;-72
2023/05/08 01:02:08;;;;;;;13.60;12.20;;;11.80;99.90;;;;;;4994905;28;20121;-73
2023/05/08 01:04:35;;;;;;;13.38;11.98;;;11.70;99.90;;;;;;4995302;28;20056;-73
2023/05/08 01:07:02;;;;;;;15.52;13.05;;;11.70;99.90;;;;;;4994802;28;20046;-72
2023/05/08 01:09:27;;;;;;;14.20;12.70;;;11.70;99.90;;;;;;4993342;28;20052;-72
2023/05/08 01:12:15;;;;;;;13.48;11.80;;;11.60;99.90;;;;;;4994602;28;20046;-73
2023/05/08 01:15:08;;;;;;;13.90;12.40;;;11.60;99.90;;;;;;4994543;28;20050;-72
2023/05/08 01:17:55;;;;;;;15.02;13.13;;;11.50;99.90;;;;;;4994579;28;20049;-72
2023/05/08 01:20:45;;;;;;;13.73;12.27;;;11.50;99.90;;;;;;4993567;28;20456;-73
2023/05/08 01:23:48;;;;;;;14.80;13.13;;;11.40;99.90;;;;;;4994978;28;20074;-72
2023/05/08 01:26:40;;;;;;;17.40;14.10;;;11.40;99.90;;;;;;4993321;28;20371;-72
2023/05/08 01:29:36;;;;;;;16.17;14.48;;;11.40;99.90;;;;;;4994443;28;20089;-72
2023/05/08 01:32:19;;;;;;;16.60;14.48;;;11.30;99.90;;;;;;4993579;28;20133;-72
2023/05/08 01:35:06;;;;;;;16.17;14.45;;;11.20;99.90;;;;;;4994336;28;20038;-72
2023/05/08 01:37:48;;;;;;;15.55;13.70;;;11.20;99.90;;;;;;4998784;28;20069;-73
2023/05/08 01:40:37;;;;;;;15.48;13.70;;;11.10;99.90;;;;;;5014091;28;20060;-72
2023/05/08 01:43:21;;;;;;;16.38;14.38;;;11.10;99.90;;;;;;4990845;28;20061;-72
2023/05/08 01:45:50;;;;;;;16.38;14.18;;;11.00;99.90;;;;;;5014070;28;20045;-72
2023/05/08 01:48:32;;;;;;;15.23;13.63;;;11.00;99.90;;;;;;5014001;28;20357;-72
2023/05/08 01:51:06;;;;;;;17.60;14.23;;;11.00;99.90;;;;;;5013655;28;20050;-73
2023/05/08 01:53:42;;;;;;;18.98;14.45;;;10.90;99.90;;;;;;5013621;28;20046;-72
2023/05/08 01:56:21;;;;;;;17.10;13.90;;;10.90;99.90;;;;;;5014351;28;20180;-73
2023/05/08 01:58:49;;;;;;;15.43;12.98;;;10.90;99.90;;;;;;5013752;28;20433;-71
2023/05/08 02:01:19;;;;;;;20.33;15.52;;;10.80;99.90;;;;;;4996090;28;20383;-72
2023/05/08 02:03:47;;;;;;;14.55;13.05;;;10.80;99.90;;;;;;5013339;28;20042;-72
2023/05/08 02:06:16;;;;;;;13.23;11.85;;;10.80;99.90;;;;;;4979471;28;20488;-73
2023/05/08 02:08:44;;;;;;;14.82;13.02;;;10.80;99.90;;;;;;5013106;28;20077;-72
2023/05/08 02:11:12;;;;;;;17.60;13.20;;;10.80;99.90;;;;;;5013569;28;20050;-72
2023/05/08 02:13:39;;;;;;;15.13;13.40;;;10.70;99.90;;;;;;5013532;28;20053;-73
2023/05/08 02:16:07;;;;;;;17.75;14.48;;;10.70;99.90;;;;;;5013789;28;20120;-73
2023/05/08 02:18:34;;;;;;;17.80;13.95;;;10.70;99.90;;;;;;4996023;28;20041;-73
2023/05/08 02:21:03;;;;;;;17.13;14.93;;;10.70;99.90;;;;;;5013067;28;20050;-74
2023/05/08 02:23:30;;;;;;;17.65;14.27;;;10.70;99.90;;;;;;5013300;28;20046;-72
2023/05/08 02:25:56;;;;;;;16.00;13.30;;;10.60;99.90;;;;;;5013251;28;20050;-73
2023/05/08 02:28:23;;;;;;;17.83;14.30;;;10.60;99.90;;;;;;5012904;28;20042;-72
2023/05/08 02:30:50;;;;;;;16.13;14.30;;;10.60;99.90;;;;;;5013582;28;20104;-73
2023/05/08 02:33:17;;;;;;;14.50;12.90;;;10.60;99.90;;;;;;5013437;28;20046;-73
2023/05/08 02:35:45;;;;;;;17.85;14.68;;;10.50;99.90;;;;;;5012687;28;20049;-72
2023/05/08 02:38:12;;;;;;;15.73;13.25;;;10.50;99.90;;;;;;5012320;28;20559;-72
2023/05/08 02:40:44;;;;;;;16.88;13.93;;;10.50;99.90;;;;;;5013312;28;20057;-73
2023/05/08 02:43:10;;;;;;;15.45;13.88;;;10.00;99.90;;;;;;5013339;28;20061;-72
2023/05/08 02:45:46;;;;;;;15.00;12.93;;;10.50;99.90;;;;;;5013081;28;20069;-73
2023/05/08 02:48:19;;;;;;;17.52;15.05;;;10.50;99.90;;;;;;5012826;28;20042;-74
2023/05/08 02:51:13;;;;;;;17.77;14.43;;;10.50;99.90;;;;;;5013360;28;20048;-73
2023/05/08 02:53:53;;;;;;;17.45;13.38;;;10.40;99.90;;;;;;5010426;28;20108;-73
2023/05/08 02:56:45;;;;;;;15.25;13.38;;;10.40;99.90;;;;;;4995198;28;20081;-73
2023/05/08 02:59:36;;;;;;;15.82;13.90;;;10.40;99.90;;;;;;5012866;28;20041;-73
2023/05/08 03:02:25;;;;;;;14.98;13.48;;;10.30;99.90;;;;;;5012348;28;20503;-72
2023/05/08 03:04:58;;;;;;;13.52;11.85;;;10.30;99.90;;;;;;5012883;28;20050;-72
2023/05/08 03:07:27;;;;;;;15.25;12.93;;;10.20;99.90;;;;;;5012537;28;20050;-73
2023/05/08 03:10:01;;;;;;;19.08;15.20;;;10.20;99.90;;;;;;5013072;28;20145;-72
2023/05/08 03:12:32;;;;;;;17.45;15.15;;;10.10;99.90;;;;;;4995889;28;20132;-73
2023/05/08 03:15:10;;;;;;;14.57;12.43;;;10.10;99.90;;;;;;4995004;28;20108;-72
2023/05/08 03:17:38;;;;;;;16.33;14.18;;;10.10;99.90;;;;;;4995373;28;20463;-72
2023/05/08 03:20:07;;;;;;;16.73;13.90;;;10.00;99.90;;;;;;5012421;28;20089;-72
2023/05/08 03:22:36;;;;;;;17.40;13.88;;;10.00;99.90;;;;;;4999496;28;20103;-71
2023/05/08 03:25:05;;;;;;;16.52;13.60;;;10.00;99.90;;;;;;5016538;28;20120;-72
2023/05/08 03:27:32;;;;;;;14.85;13.30;;;10.00;99.90;;;;;;5016714;28;20053;-73
2023/05/08 03:30:00;;;;;;;17.02;14.77;;;10.00;99.90;;;;;;4999107;28;20527;-73
2023/05/08 03:32:28;;;;;;;14.10;12.65;;;10.00;99.90;;;;;;5016222;28;20061;-72
2023/05/08 03:34:57;;;;;;;16.10;14.38;;;10.00;99.90;;;;;;5016527;28;20052;-72
2023/05/08 03:37:23;;;;;;;14.95;13.35;;;10.00;99.90;;;;;;5015929;28;20058;-72
2023/05/08 03:39:50;;;;;;;19.67;14.48;;;10.00;99.90;;;;;;5016559;28;20131;-72
2023/05/08 03:42:20;;;;;;;17.23;14.45;;;10.00;99.90;;;;;;5015976;28;20045;-72
2023/05/08 03:44:52;;;;;;;15.90;13.45;;;10.00;99.90;;;;;;5016046;28;20046;-72
2023/05/08 03:47:19;;;;;;;16.25;13.32;;;10.00;99.90;;;;;;4998294;28;20057;-73
2023/05/08 03:49:47;;;;;;;15.32;13.70;;;10.00;99.90;;;;;;4998495;28;20094;-72
2023/05/08 03:52:13;;;;;;;17.33;14.40;;;10.00;99.90;;;;;;5015822;28;20050;-72
2023/05/08 03:54:39;;;;;;;17.17;13.82;;;9.90;99.90;;;;;;4998350;28;20052;-71
2023/05/08 03:57:05;;;;;;;17.50;13.93;;;9.90;99.90;;;;;;4998466;28;20046;-72
2023/05/08 03:59:49;;;;;;;15.75;13.88;;;9.90;99.90;;;;;;5015729;28;20046;-71
2023/05/08 04:02:32;;;;;;;16.55;13.98;;;9.90;99.90;;;;;;5016023;28;20053;-71
2023/05/08 04:05:26;;;;;;;16.30;14.57;;;9.90;99.90;;;;;;4997863;28;20100;-72
2023/05/08 04:07:59;;;;;;;17.77;14.13;;;9.90;99.90;;;;;;4997602;28;20054;-72
2023/05/08 04:10:38;;;;;;;16.17;14.15;;;9.90;99.90;;;;;;5015811;28;20050;-72
2023/05/08 04:13:14;;;;;;;16.00;14.05;;;9.90;99.90;;;;;;5016125;28;20112;-72
2023/05/08 04:15:50;;;;;;;14.90;13.23;;;9.90;99.90;;;;;;4998615;28;20050;-71
2023/05/08 04:18:21;;;;;;;16.13;12.93;;;10.00;99.90;;;;;;5015450;28;20462;-72
2023/05/08 04:20:48;;;;;;;15.23;12.38;;;9.90;99.90;;;;;;5015268;28;20046;-72
2023/05/08 04:23:18;;;;;;;14.13;12.73;;;9.90;99.90;;;;;;5015331;28;20081;-72
2023/05/08 04:25:45;;;;;;;14.80;12.77;;;10.00;99.90;;;;;;5015272;28;20045;-72
2023/05/08 04:28:11;;;;;;;15.35;12.30;;;9.90;99.90;;;;;;5015129;28;20133;-72
2023/05/08 04:30:38;;;;;;;14.32;12.80;;;10.00;99.90;;;;;;4997460;28;20081;-73
2023/05/08 04:33:05;;;;;;;16.45;13.38;;;10.00;99.90;;;;;;5013745;28;20124;-72
2023/05/08 04:35:32;;;;;;;16.17;13.05;;;10.00;99.90;;;;;;5015469;28;20096;-73
2023/05/08 04:37:58;;;;;;;14.35;12.27;;;10.00;99.90;;;;;;5014578;28;20058;-72
2023/05/08 04:40:24;;;;;;;16.45;13.25;;;10.10;99.90;;;;;;5015155;28;20053;-73
2023/05/08 04:42:50;;;;;;;16.90;13.02;;;10.10;99.90;;;;;;5014757;28;20052;-73
2023/05/08 04:45:16;;;;;;;13.90;12.35;;;10.10;99.90;;;;;;5014767;28;20046;-73
2023/05/08 04:47:41;;;;;;;16.17;12.27;;;10.10;99.90;;;;;;5014506;28;20100;-72
2023/05/08 04:50:08;;;;;;;14.00;12.43;;;10.10;99.90;;;;;;5014322;28;20127;-72
2023/05/08 04:52:33;;;;;;;15.70;13.93;;;10.10;99.90;;;;;;5014346;28;20507;-72
2023/05/08 04:54:59;;;;;;;16.13;12.68;;;10.10;99.90;;;;;;5014329;28;20092;-73
2023/05/08 04:57:24;;;;;;;15.77;13.05;;;10.10;99.90;;;;;;5014274;28;20053;-73
2023/05/08 04:59:50;;;;;;;12.90;11.57;;;10.10;99.90;;;;;;4996746;28;20045;-73
2023/05/08 05:02:16;;;;;;;14.00;11.98;;;10.20;99.90;;;;;;5014573;28;20041;-73
2023/05/08 05:04:42;;;;;;;12.55;10.60;;;10.20;99.90;;;;;;5014550;28;20049;-72
2023/05/08 05:07:07;;;;;;;12.73;11.30;;;10.20;99.90;;;;;;4996493;28;20485;-72
2023/05/08 05:09:37;;;;;;;13.98;12.20;;;10.30;99.90;;;;;;5014215;28;20042;-72
2023/05/08 05:12:04;;;;;;;15.23;11.95;;;10.40;99.90;;;;;;4982441;28;20078;-73
2023/05/08 05:14:30;;;;;;;16.90;11.70;;;10.40;99.90;;;;;;5013796;28;20529;-73
2023/05/08 05:16:55;;;;;;;12.40;11.20;;;10.50;99.90;;;;;;5014137;28;20046;-73
2023/05/08 05:19:21;;;;;;;13.90;12.13;;;10.50;99.90;;;;;;5013968;28;20049;-72
2023/05/08 05:21:47;;;;;;;13.68;12.30;;;10.60;99.90;;;;;;5014362;28;20049;-72
2023/05/08 05:24:12;;;;;;;15.23;12.20;;;10.60;99.90;;;;;;5013920;28;20056;-73
2023/05/08 05:26:38;;;;;;;12.70;11.40;;;10.70;99.90;;;;;;5013832;28;20049;-73
2023/05/08 05:29:04;;;;;;;14.45;11.82;;;10.80;99.90;;;;;;5013706;28;20033;-72
2023/05/08 05:31:29;;;;;;;13.65;12.25;;;10.90;99.90;;;;;;5014419;28;20046;-72
2023/05/08 05:33:55;;;;;;;13.25;11.77;;;10.90;99.90;;;;;;5013889;28;20558;-73
2023/05/08 05:36:21;;;;;;;14.95;12.07;;;10.90;99.90;;;;;;4980793;28;20525;-73
2023/05/08 05:38:47;;;;;;;14.20;12.23;;;11.00;99.90;;;;;;5013447;28;20537;-72
2023/05/08 05:41:13;;;;;;;12.73;10.85;;;11.10;99.90;;;;;;5013519;28;20378;-72
2023/05/08 05:43:38;;;;;;;12.30;11.07;;;11.10;99.90;;;;;;5013057;28;20050;-73
2023/05/08 05:46:05;;;;;;;12.73;11.40;;;11.20;99.90;;;;;;5013734;28;20053;-73
2023/05/08 05:48:31;;;;;;;11.95;10.73;;;11.30;99.90;;;;;;4996327;28;20458;-73
2023/05/08 05:50:57;;;;;;;13.60;12.25;;;11.30;99.90;;;;;;4995834;28;20041;-72
2023/05/08 05:53:22;;;;;;;16.30;11.82;;;11.40;99.90;;;;;;5013447;28;20092;-73
2023/05/08 05:55:48;;;;;;;14.55;12.05;;;11.50;99.90;;;;;;5013321;28;20049;-73
2023/05/08 05:58:15;;;;;;;13.45;11.27;;;11.60;99.90;;;;;;5013659;28;20037;-73
2023/05/08 06:00:44;;;;;;;13.85;11.85;;;11.70;99.90;;;;;;4995867;28;20470;-73
2023/05/08 06:03:10;;;;;;;14.45;12.20;;;11.80;99.90;;;;;;5013783;28;20057;-73
2023/05/08 06:05:36;;;;;;;12.35;11.02;;;11.90;99.90;;;;;;5013375;28;20045;-72
2023/05/08 06:08:02;;;;;;;13.40;11.23;;;12.00;99.90;;;;;;5013116;28;20034;-73
2023/05/08 06:10:28;;;;;;;13.10;11.70;;;12.00;99.90;;;;;;4995640;28;20104;-73
2023/05/08 06:12:54;;;;;;;12.85;11.38;;;12.10;99.90;;;;;;4996348;28;20060;-72
2023/05/08 06:15:20;;;;;;;12.32;10.77;;;12.20;99.90;;;;;;5013139;28;20128;-73
2023/05/08 06:17:45;;;;;;;12.82;11.43;;;12.40;99.90;;;;;;5013109;28;20049;-72
2023/05/08 06:20:11;;;;;;;11.77;10.35;;;12.50;99.90;;;;;;5013128;28;20392;-72
2023/05/08 06:22:38;;;;;;;14.63;10.85;;;12.50;99.90;;;;;;5013639;28;20187;-71
2023/05/08 06:25:08;;;;;;;11.18;9.75;;;12.50;99.90;;;;;;5013074;28;20061;-72
2023/05/08 06:27:34;;;;;;;12.00;10.77;;;12.60;99.90;;;;;;5013558;28;20046;-73
2023/05/08 06:30:00;;;;;;;13.35;11.77;;;12.70;99.90;;;;;;5013036;28;20381;-73
2023/05/08 06:32:26;;;;;;;11.82;10.30;;;12.80;99.90;;;;;;5013024;28;20050;-72
2023/05/08 06:34:51;;;;;;;12.27;10.98;;;13.00;99.90;;;;;;5013527;28;20042;-72
2023/05/08 06:37:17;;;;;;;12.43;10.07;;;13.20;99.90;;;;;;5012517;28;20046;-73
2023/05/08 06:39:43;;;;;;;11.48;9.70;;;13.60;99.90;;;;;;5013185;28;20088;-73
2023/05/08 06:42:08;;;;;;;11.88;9.82;;;14.20;99.90;;;;;;5013023;28;20466;-73
2023/05/08 06:44:34;;;;;;;11.45;9.40;;;15.40;99.90;;;;;;5012751;28;20045;-73
2023/05/08 06:47:01;;;;;;;13.07;9.15;;;16.30;99.90;;;;;;4995352;28;20051;-73
2023/05/08 06:49:26;;;;;;;9.60;8.48;;;16.50;99.90;;;;;;5013351;28;20053;-73
2023/05/08 06:51:52;;;;;;;9.75;8.30;;;16.20;99.90;;;;;;5013260;28;20046;-73
2023/05/08 06:54:18;;;;;;;11.13;9.50;;;15.90;99.90;;;;;;5012683;28;20129;-72
2023/05/08 06:56:44;;;;;;;9.25;8.13;;;15.60;99.90;;;;;;5011973;28;20046;-73
2023/05/08 06:59:10;;;;;;;10.20;8.38;;;15.50;99.90;;;;;;5012633;28;20042;-73
2023/05/08 07:01:36;;;;;;;9.85;8.20;;;15.20;99.90;;;;;;5013162;28;20049;-72
2023/05/08 07:04:02;;;;;;;10.05;8.27;;;15.00;99.90;;;;;;5012747;28;20080;-73
2023/05/08 07:06:30;;;;;;;11.27;9.38;;;15.00;99.90;;;;;;5012934;28;20089;-73
2023/05/08 07:08:56;;;;;;;10.65;8.68;;;14.90;99.90;;;;;;5012741;28;20042;-77
2023/05/08 07:11:22;;;;;;;9.48;8.35;;;14.90;99.90;;;;;;4995796;28;20049;-79
2023/05/08 07:13:47;;;;;;;13.60;10.80;;;14.80;99.90;;;;;;5012999;28;20054;-79
2023/05/08 07:16:15;;;;;;;11.60;10.00;;;14.70;99.90;;;;;;5012807;28;20434;-76
2023/05/08 07:18:41;;;;;;;10.07;8.30;;;14.70;99.90;;;;;;4995677;28;20065;-77
2023/05/08 07:21:07;;;;;;;11.00;9.90;;;14.80;99.90;;;;;;4995619;28;20076;-74
2023/05/08 07:23:33;;;;;;;9.90;8.85;;;14.90;99.90;;;;;;5012722;28;20113;-73
2023/05/08 07:25:59;;;;;;;10.93;9.45;;;15.00;99.90;;;;;;4979076;28;20129;-73
2023/05/08 07:28:24;;;;;;;11.95;9.40;;;15.10;99.90;;;;;;5012309;28;20136;-74
2023/05/08 07:30:50;;;;;;;11.68;10.05;;;15.30;99.90;;;;;;5012420;28;20054;-73
2023/05/08 07:33:16;;;;;;;10.07;8.57;;;15.40;99.90;;;;;;5012275;28;20375;-73
2023/05/08 07:35:42;;;;;;;10.95;8.45;;;15.70;99.90;;;;;;5012270;28;20042;-73
2023/05/08 07:38:08;;;;;;;10.30;9.15;;;15.90;99.90;;;;;;4994614;28;20069;-74
2023/05/08 07:40:34;;;;;;;10.75;8.88;;;16.10;99.90;;;;;;5011967;28;20060;-74
2023/05/08 07:42:59;;;;;;;10.05;8.23;;;16.40;99.90;;;;;;5012245;28;20042;-74
2023/05/08 07:45:25;;;;;;;10.05;8.65;;;16.60;99.90;;;;;;4994610;28;20402;-73
2023/05/08 07:47:53;;;;;;;12.07;10.00;;;16.80;99.90;;;;;;5012354;28;20476;-73
2023/05/08 07:50:20;;;;;;;11.18;8.73;;;16.90;99.90;;;;;;5012317;28;20395;-72
2023/05/08 07:52:46;;;;;;;10.20;8.73;;;16.90;99.90;;;;;;4994704;28;20169;-73
2023/05/08 07:55:13;;;;;;;10.65;8.75;;;16.80;99.90;;;;;;4994393;28;20494;-73
2023/05/08 07:57:40;;;;;;;12.60;9.65;;;16.80;99.90;;;;;;5011481;28;20050;-73
2023/05/08 08:00:08;;;;;;;10.05;8.98;;;17.00;99.90;;;;;;5012160;28;20050;-73
2023/05/08 08:02:33;;;;;;;10.65;9.65;;;17.40;99.90;;;;;;4994577;28;20042;-74
2023/05/08 08:04:59;;;;;;;10.77;9.68;;;17.50;99.90;;;;;;4994484;28;20053;-73
2023/05/08 08:07:25;;;;;;;10.70;9.60;;;17.50;99.90;;;;;;5014156;28;20142;-73
2023/05/08 08:09:50;;;;;;;9.60;8.38;;;17.50;99.90;;;;;;4997541;28;20121;-73
2023/05/08 08:12:16;;;;;;;9.80;8.60;;;17.50;99.90;;;;;;5015270;28;20111;-73
2023/05/08 08:14:42;;;;;;;10.80;9.30;;;17.50;99.90;;;;;;5015083;28;20041;-73
2023/05/08 08:17:07;;;;;;;10.90;9.80;;;17.40;99.90;;;;;;5015038;28;20092;-73
2023/05/08 08:19:33;;;;;;;10.82;9.20;;;17.40;99.90;;;;;;5015616;28;20096;-72
2023/05/08 08:21:59;;;;;;;13.13;9.68;;;17.60;99.90;;;;;;5015258;28;20509;-73
2023/05/08 08:24:25;;;;;;;11.15;9.70;;;17.90;99.90;;;;;;4997551;28;20419;-73
2023/05/08 08:26:50;;;;;;;10.32;9.32;;;18.20;99.90;;;;;;4997549;28;20049;-73
2023/05/08 08:29:16;;;;;;;11.45;10.02;;;18.60;99.90;;;;;;5014969;28;20046;-74
2023/05/08 08:31:42;;;;;;;11.80;9.90;;;19.00;99.90;;;;;;5015037;28;20061;-74
2023/05/08 08:34:08;;;;;;;10.65;9.50;;;19.20;99.90;;;;;;5014613;28;20057;-73
2023/05/08 08:36:33;;;;;;;12.32;9.90;;;19.50;99.90;;;;;;5015226;28;20092;-74
2023/05/08 08:38:59;;;;;;;12.50;10.07;;;19.80;99.90;;;;;;5014365;28;20057;-74
2023/05/08 08:41:26;;;;;;;11.85;9.30;;;20.00;99.90;;;;;;5015254;28;20439;-74
2023/05/08 08:43:53;;;;;;;11.00;9.48;;;20.30;99.90;;;;;;5015107;28;20053;-74
2023/05/08 08:46:27;;;;;;;10.98;9.75;;;20.20;99.90;;;;;;5015132;28;20076;-75
2023/05/08 08:48:55;;;;;;;11.07;9.70;;;20.30;99.90;;;;;;5014779;28;20042;-74
2023/05/08 08:51:27;;;;;;;10.07;8.82;;;20.40;99.90;;;;;;5014583;28;20042;-73
2023/05/08 08:54:16;;;;;;;10.68;9.45;;;20.50;99.90;;;;;;5014806;28;20057;-73
2023/05/08 08:56:44;;;;;;;10.88;9.75;;;20.70;99.90;;;;;;5014932;28;20108;-72
2023/05/08 08:59:12;;;;;;;11.00;9.18;;;20.80;99.90;;;;;;5014532;28;20034;-72
2023/05/08 09:01:43;;;;;;;11.25;10.10;;;21.20;99.90;;;;;;5014546;28;20045;-73
2023/05/08 09:04:08;;;;;;;10.57;9.48;;;21.40;99.90;;;;;;5014828;28;20061;-72
2023/05/08 09:06:35;;;;;;;14.73;10.68;;;21.80;99.90;;;;;;5014443;28;20041;-72
2023/05/08 09:09:02;;;;;;;11.82;10.43;;;22.00;99.90;;;;;;5014520;28;20132;-73
2023/05/08 09:11:28;;;;;;;13.00;10.15;;;21.70;99.90;;;;;;5014421;28;20053;-73
2023/05/08 09:13:54;;;;;;;11.18;9.82;;;21.30;99.90;;;;;;5014379;28;20053;-72
2023/05/08 09:16:21;;;;;;;13.48;10.73;;;21.00;99.90;;;;;;5014467;28;20127;-73
2023/05/08 09:18:47;;;;;;;12.32;10.65;;;20.70;99.90;;;;;;5013574;28;20053;-72
2023/05/08 09:21:13;;;;;;;12.40;11.23;;;20.30;99.90;;;;;;5013359;28;20050;-73
2023/05/08 09:24:00;;;;;;;11.55;10.38;;;20.30;99.90;;;;;;5014184;28;20049;-72
2023/05/08 09:26:37;;;;;;;13.93;11.60;;;20.40;99.90;;;;;;5014690;28;20390;-73
2023/05/08 09:29:21;;;;;;;12.43;11.13;;;20.60;99.90;;;;;;5014396;28;20041;-72
2023/05/08 09:31:51;;;;;;;11.57;10.38;;;21.20;99.90;;;;;;5014135;28;20046;-72
2023/05/08 09:34:32;;;;;;;12.88;10.98;;;21.90;99.90;;;;;;5014282;28;20052;-73
2023/05/08 09:37:11;;;;;;;13.43;11.00;;;22.10;99.60;;;;;;5014220;28;20096;-73
2023/05/08 09:39:42;;;;;;;11.95;10.75;;;22.40;99.90;;;;;;4996256;28;20050;-72
2023/05/08 09:42:08;;;;;;;12.63;10.38;;;22.90;99.90;;;;;;5013932;28;20049;-73
2023/05/08 09:44:50;;;;;;;12.30;11.00;;;23.30;98.90;;;;;;5013702;28;20046;-73
2023/05/08 09:47:23;;;;;;;14.63;11.70;;;23.60;98.00;;;;;;5013503;28;20586;-72
2023/05/08 09:49:58;;;;;;;12.85;11.10;;;23.80;98.50;;;;;;5013902;28;20053;-73
2023/05/08 09:52:24;;;;;;;15.07;12.20;;;24.10;97.30;;;;;;5013800;28;20077;-73
2023/05/08 09:55:06;;;;;;;13.45;12.10;;;23.90;98.00;;;;;;5014022;28;20552;-73
2023/05/08 09:57:35;;;;;;;;;;;23.80;97.80;;;;;;4981875;28;20089;-73
2023/05/08 10:00:02;;;;;;;13.02;11.73;;;23.90;97.20;;;;;;5013515;28;19921;-73
2023/05/08 10:02:28;;;;;;;13.13;11.23;;;24.20;98.00;;;;;;5013529;28;20081;-73
2023/05/08 10:04:53;;;;;;;12.63;11.10;;;24.60;97.60;;;;;;5013982;28;20052;-74
2023/05/08 10:07:34;;;;;;;16.25;11.95;;;24.40;97.10;;;;;;5013281;28;20404;-73
2023/05/08 10:10:04;;;;;;;13.30;10.75;;;24.30;96.90;;;;;;4980018;28;20100;-73
2023/05/08 10:12:31;;;;;;;13.25;11.85;;;24.70;97.30;;;;;;5013647;28;20440;-73
2023/05/08 10:14:57;;;;;;;12.75;11.43;;;24.70;97.10;;;;;;5013213;28;20054;-73
2023/05/08 10:17:43;;;;;;;13.43;12.13;;;24.90;97.10;;;;;;5013606;28;20076;-73
2023/05/08 10:20:12;;;;;;;13.85;12.07;;;25.00;95.90;;;;;;5013602;28;20137;-73
2023/05/08 10:22:42;;;;;;;12.73;11.50;;;25.10;95.70;;;;;;5013120;28;20053;-73
2023/05/08 10:25:15;;;;;;;12.82;11.60;;;24.90;95.80;;;;;;5012983;28;20050;-72
2023/05/08 10:28:36;;;;;;;14.13;11.15;;;25.10;96.70;;;;;;4995607;28;20045;-73
2023/05/08 10:31:04;;;;;;;15.52;12.30;;;25.40;95.60;;;;;;4935652;29;20047;-72
2023/05/08 10:33:32;;;;;;;12.48;11.27;;;25.40;95.40;;;;;;5001245;28;20058;-73
2023/05/08 10:35:59;;;;;;;13.80;12.40;;;25.60;95.00;;;;;;5012959;28;20072;-72
2023/05/08 10:38:25;;;;;;;12.80;11.40;;;25.40;94.40;;;;;;5012694;28;20133;-73
2023/05/08 10:40:56;;;;;;;13.38;11.98;;;25.10;94.10;;;;;;4996011;28;20085;-73
2023/05/08 10:43:23;;;;;;;14.48;12.52;;;25.10;94.40;;;;;;5013372;28;20054;-73
2023/05/08 10:45:51;;;;;;;13.45;11.88;;;25.20;94.60;;;;;;5012664;28;20045;-72
2023/05/08 10:48:27;;;;;;;14.23;12.82;;;25.10;94.60;;;;;;5013148;28;20041;-73
2023/05/08 10:51:08;;;;;;;13.88;12.50;;;24.90;94.50;;;;;;5013315;28;20042;-73
2023/05/08 10:53:58;;;;;;;14.23;12.82;;;24.40;95.10;;;;;;5012402;28;20568;-72
2023/05/08 10:56:29;;;;;;;14.20;12.70;;;24.10;95.00;;;;;;5013354;28;20056;-73
2023/05/08 10:58:56;;;;;;;14.32;12.90;;;23.90;94.70;;;;;;4995138;28;20064;-72
2023/05/08 11:01:23;;;;;;;13.90;12.50;;;23.60;95.50;;;;;;5012628;28;20100;-72
2023/05/08 11:03:53;;;;;;;14.80;12.93;;;23.30;95.40;;;;;;5012530;28;20137;-72
2023/05/08 11:06:43;;;;;;;16.33;13.55;;;23.20;95.80;;;;;;5013056;28;20064;-73
2023/05/08 11:09:20;;;;;;;13.77;12.35;;;23.10;95.60;;;;;;5012465;28;20430;-72
2023/05/08 11:11:59;;;;;;;15.93;12.68;;;23.00;95.70;;;;;;4995109;28;20046;-72
2023/05/08 11:14:26;;;;;;;16.77;14.98;;;22.70;95.60;;;;;;5013251;28;20046;-72
2023/05/08 11:16:52;;;;;;;15.25;13.32;;;22.30;96.10;;;;;;5012571;28;20041;-72
2023/05/08 11:19:19;;;;;;;16.98;12.65;;;22.40;96.30;;;;;;5012478;28;20137;-72
2023/05/08 11:22:12;;;;;;;16.25;14.02;;;22.40;96.00;;;;;;5012547;28;20085;-72
2023/05/08 11:24:48;;;;;;;;;;;22.60;96.10;;;;;;5012873;28;20141;-72
2023/05/08 11:27:15;;;;;;;16.35;14.20;;;22.60;96.40;;;;;;5012756;28;20321;-72
2023/05/08 11:29:41;;;;;;;16.23;12.80;;;22.50;96.40;;;;;;5012146;28;20100;-72
2023/05/08 11:32:07;;;;;;;17.63;14.48;;;22.60;96.60;;;;;;5012056;28;20438;-72
2023/05/08 11:34:41;;;;;;;15.77;13.48;;;22.70;96.40;;;;;;5012799;28;20108;-72
2023/05/08 11:37:20;;;;;;;16.05;14.35;;;22.70;96.00;;;;;;5012375;28;20042;-72
2023/05/08 11:39:47;;;;;;;20.23;14.77;;;22.60;96.60;;;;;;5012318;28;20062;-71
2023/05/08 11:42:27;;;;;;;17.80;13.88;;;22.70;96.80;;;;;;5014008;28;20125;-72
2023/05/08 11:45:12;;;;;;;17.52;13.93;;;22.70;96.50;;;;;;5016033;28;20092;-72
2023/05/08 11:47:40;;;;;;;17.52;14.82;;;22.70;96.40;;;;;;4998272;28;20092;-72
2023/05/08 11:50:07;;;;;;;16.08;13.85;;;22.80;96.10;;;;;;5015787;28;20092;-72
2023/05/08 11:52:38;;;;;;;17.50;14.25;;;22.80;96.20;;;;;;5016350;28;20096;-72
2023/05/08 11:55:05;;;;;;;16.35;13.40;;;22.80;95.90;;;;;;5015741;28;20125;-71
2023/05/08 11:57:34;;;;;;;19.52;13.65;;;22.90;96.00;;;;;;4998175;28;20409;-72
2023/05/08 12:00:08;;;;;;;15.38;13.32;;;23.00;96.00;;;;;;5015736;28;20034;-70
2023/05/08 12:02:46;;;;;;;16.55;12.88;;;23.00;95.90;;;;;;5016182;28;20046;-71
2023/05/08 12:05:12;;;;;;;15.88;13.20;;;23.20;96.00;;;;;;5015584;28;20046;-70
2023/05/08 12:07:48;;;;;;;18.77;14.73;;;23.20;96.00;;;;;;5015968;28;20060;-70
2023/05/08 12:10:14;;;;;;;17.33;13.40;;;23.30;95.90;;;;;;5015303;28;20100;-71
2023/05/08 12:12:42;;;;;;;16.35;13.23;;;23.40;95.70;;;;;;5015203;28;20046;-71
2023/05/08 12:15:14;;;;;;;17.15;14.55;;;23.50;95.60;;;;;;5015344;28;20049;-71
2023/05/08 12:17:41;;;;;;;16.02;14.32;;;23.60;95.60;;;;;;4997991;28;20116;-70
2023/05/08 12:20:17;;;;;;;19.65;14.18;;;23.70;95.40;;;;;;5015152;28;20050;-71
2023/05/08 12:22:51;;;;;;;16.85;13.52;;;23.50;95.30;;;;;;5015432;28;20050;-71
2023/05/08 12:25:17;;;;;;;17.65;13.70;;;23.60;95.50;;;;;;5015028;28;20498;-71
2023/05/08 12:27:44;;;;;;;15.93;12.07;;;23.40;95.50;;;;;;5014700;28;20046;-70
2023/05/08 12:30:12;;;;;;;16.88;14.07;;;23.30;95.60;;;;;;5015192;28;20054;-71
2023/05/08 12:32:42;;;;;;;17.40;13.60;;;23.20;95.30;;;;;;4997057;28;20128;-70
2023/05/08 12:35:10;;;;;;;14.23;11.63;;;23.30;95.50;;;;;;4997082;28;20046;-71
2023/05/08 12:37:36;;;;;;;14.85;11.45;;;23.30;95.50;;;;;;5015151;28;20540;-71
2023/05/08 12:40:03;;;;;;;16.08;11.68;;;23.50;95.80;;;;;;5015008;28;20108;-71
2023/05/08 12:42:48;;;;;;;17.58;13.18;;;23.50;95.80;;;;;;4997228;28;20046;-71
2023/05/08 12:45:17;;;;;;;14.55;12.70;;;23.30;95.50;;;;;;5014648;28;20505;-71